KJCT - Junction/Kimble Cnty, TX, US

Issued at 1120 UTC 16 Jul 2019
Updated at 1209 UTC 16 Jul 2019
Potential Impact None Slight Moderate High
Time1151Z 16/13Z 16/14Z 16/15Z 16/16Z 16/17Z 16/18Z 16/19Z 16/20Z 16/21Z 16/22Z 16/23Z 17/00Z 17/01Z>>
Type OBS PRVL PRVL PRVL PRVL PRVL PRVL PRVL PRVL PRVL PRVL PRVL PRVL PRVL
VIS 9 >6 >6 >6 >6 >6 >6 >6 >6 >6 >6 >6 >6 >6
CIG -- -- -- -- -- -- -- -- -- -- -- -- -- --
Cover CLR SKC SKC SKC SKC SKC SKC SKC SKC SKC SKC SKC SKC SKC
FltCat VFR VFR VFR VFR VFR VFR VFR VFR VFR VFR VFR VFR VFR VFR
WX -- -- -- -- -- -- -- -- -- -- -- -- -- --
WDir 130 180 180 180 180 170 170 170 170 170 170 170 150 150
WSpd 4 6 6 6 6 11 11 11 11 11 11 11 10 10
WGst -- -- -- -- -- 17 17 17 17 17 17 17 -- --
Raw TAF
KJCT 161120Z 1612/1712 18006KT P6SM SKC
  FM161700 17011G17KT P6SM SKC
  FM170000 15010KT P6SM SKC


Raw METAR
KJCT 161151Z AUTO 13004KT 9SM CLR 24/22 A3001 RMK AO2 SLP122 T02440222 10283 20244 53010
KJCT 161051Z AUTO 19005KT 10SM CLR 26/22 A3000 RMK AO2 SLP116 T02560222
KJCT 160951Z AUTO 18008KT 10SM CLR 26/23 A2998 RMK AO2 SLP109 T02560228

METAR Board
Radar Display
Forecast Discussion
For situational awareness. Not to be used for flight planning purposes.